createdAt,value
2019-06-07T06:36:14.900Z,1003.24
2019-06-07T06:37:14.840Z,1003.26
2019-06-07T06:38:14.819Z,1003.26
2019-06-07T06:39:14.769Z,1003.30
2019-06-07T06:40:14.737Z,1003.27
2019-06-07T06:41:16.505Z,1003.25
2019-06-07T06:42:14.678Z,1003.26
2019-06-07T06:43:14.642Z,1003.26
2019-06-07T06:44:14.641Z,1003.25
2019-06-07T06:45:14.585Z,1003.18
2019-06-07T06:46:25.710Z,1003.20
2019-06-07T06:47:14.522Z,1003.18
2019-06-07T06:48:14.524Z,1003.08
2019-06-07T06:49:14.457Z,1003.03
2019-06-07T06:50:14.469Z,1003.01
2019-06-07T06:51:14.412Z,1003.03
2019-06-07T06:52:14.385Z,1003.04
2019-06-07T06:53:14.349Z,1003.02
2019-06-07T06:54:14.317Z,1003.07
2019-06-07T06:55:14.292Z,1003.05
2019-06-07T06:56:14.254Z,1003.05
2019-06-07T06:57:19.790Z,1003.08
2019-06-07T06:58:14.169Z,1003.07
2019-06-07T06:59:37.396Z,1003.02
2019-06-07T07:00:14.107Z,1003.08
2019-06-07T07:01:14.078Z,1003.07
2019-06-07T07:02:14.132Z,1003.09
2019-06-07T07:04:14.056Z,1003.17
2019-06-07T07:05:13.945Z,1003.17
2019-06-07T07:06:25.745Z,1003.08
2019-06-07T07:07:13.883Z,1003.09
2019-06-07T07:08:13.877Z,1003.07
2019-06-07T07:09:13.820Z,1003.05
2019-06-07T07:10:13.856Z,1003.03
2019-06-07T07:11:13.771Z,1003.02
2019-06-07T07:12:15.084Z,1002.96
2019-06-07T07:13:13.707Z,1002.96
2019-06-07T07:14:13.703Z,1002.90
2019-06-07T07:15:13.643Z,1002.89
2019-06-07T07:16:13.633Z,1002.83
2019-06-07T07:17:13.591Z,1002.87
2019-06-07T07:18:13.561Z,1002.83
2019-06-07T07:19:13.523Z,1002.82
2019-06-07T07:20:13.523Z,1002.83
2019-06-07T07:21:13.455Z,1002.79
2019-06-07T07:22:13.426Z,1002.80
2019-06-07T07:23:13.401Z,1002.75
2019-06-07T07:24:21.514Z,1002.76
2019-06-07T07:25:13.356Z,1002.75
2019-06-07T07:26:13.351Z,1002.78
2019-06-07T07:27:13.339Z,1002.72
2019-06-07T07:28:13.252Z,1002.75
2019-06-07T07:29:13.230Z,1002.68
2019-06-07T07:31:13.181Z,1002.75
2019-06-07T07:32:13.179Z,1002.70
2019-06-07T07:33:13.130Z,1002.73
2019-06-07T07:34:31.830Z,1002.66
2019-06-07T07:35:13.040Z,1002.66
2019-06-07T07:36:28.610Z,1002.65
2019-06-07T07:37:12.964Z,1002.62
2019-06-07T07:38:12.937Z,1002.61
2019-06-07T07:39:12.934Z,1002.51
2019-06-07T07:40:55.573Z,1002.55
2019-06-07T07:41:15.662Z,1002.56
2019-06-07T07:42:20.708Z,1002.55
2019-06-07T07:43:12.798Z,1002.58
2019-06-07T07:44:12.799Z,1002.54
2019-06-07T07:45:12.737Z,1002.53
2019-06-07T07:46:29.975Z,1002.49
2019-06-07T07:47:12.698Z,1002.49
2019-06-07T07:48:17.593Z,1002.47
2019-06-07T07:49:12.628Z,1002.47
2019-06-07T07:50:12.608Z,1002.48
2019-06-07T07:51:12.555Z,1002.45
2019-06-07T07:52:12.563Z,1002.48
2019-06-07T07:53:12.548Z,1002.49
2019-06-07T07:54:12.464Z,1002.42
2019-06-07T07:55:12.481Z,1002.38
2019-06-07T07:56:12.408Z,1002.38
2019-06-07T07:57:12.370Z,1002.41
2019-06-07T07:58:12.373Z,1002.41
2019-06-07T07:59:12.313Z,1002.37
2019-06-07T08:00:49.369Z,1002.34
2019-06-07T08:01:12.254Z,1002.34
2019-06-07T08:02:12.219Z,1002.37
2019-06-07T08:03:12.199Z,1002.37
2019-06-07T08:04:12.173Z,1002.30
2019-06-07T08:05:22.699Z,1002.26
2019-06-07T08:06:12.135Z,1002.24
2019-06-07T08:07:12.065Z,1002.21
2019-06-07T08:08:12.050Z,1002.15
2019-06-07T08:09:12.062Z,1002.13
2019-06-07T08:10:12.021Z,1002.07
2019-06-07T08:11:12.984Z,1002.16
2019-06-07T08:12:11.926Z,1002.11
2019-06-07T08:13:24.528Z,1002.05
2019-06-07T08:14:11.891Z,1002.02
2019-06-07T08:15:11.832Z,1001.93
2019-06-07T08:16:16.505Z,1001.96
2019-06-07T08:17:11.767Z,1001.96
2019-06-07T08:18:11.757Z,1001.87
2019-06-07T08:19:13.095Z,1001.86
2019-06-07T08:20:11.681Z,1001.88
2019-06-07T08:21:24.333Z,1001.93
2019-06-07T08:22:11.627Z,1001.88
2019-06-07T08:23:11.592Z,1001.90
2019-06-07T08:24:11.565Z,1001.88
2019-06-07T08:25:11.868Z,1001.81
2019-06-07T08:26:11.515Z,1001.90
2019-06-07T08:27:25.762Z,1001.88
2019-06-07T08:28:11.445Z,1001.95
2019-06-07T08:29:11.423Z,1001.98
2019-06-07T08:30:46.664Z,1001.93
2019-06-07T08:31:11.370Z,1001.91
2019-06-07T08:32:11.331Z,1001.92
2019-06-07T08:33:25.549Z,1001.89
2019-06-07T08:34:11.272Z,1001.91
2019-06-07T08:35:11.244Z,1001.92
2019-06-07T08:36:19.840Z,1001.89
2019-06-07T08:37:11.218Z,1001.86
2019-06-07T08:38:25.859Z,1001.87
2019-06-07T08:39:11.124Z,1001.79
2019-06-07T08:40:11.146Z,1001.84
2019-06-07T08:41:12.598Z,1001.90
2019-06-07T08:42:15.856Z,1001.80
2019-06-07T08:43:19.477Z,1001.77
2019-06-07T08:44:23.432Z,1001.62
2019-06-07T08:45:11.064Z,1001.63
2019-06-07T08:46:10.946Z,1001.54
2019-06-07T08:47:19.782Z,1001.60
2019-06-07T08:48:26.912Z,1001.57
2019-06-07T08:49:10.860Z,1001.53
2019-06-07T08:50:10.836Z,1001.51
2019-06-07T08:51:10.769Z,1001.50
2019-06-07T08:52:12.428Z,1001.54
2019-06-07T08:53:12.142Z,1001.40
2019-06-07T08:54:22.338Z,1001.35
2019-06-07T08:55:10.724Z,1001.34
2019-06-07T08:56:11.522Z,1001.36
2019-06-07T08:57:20.585Z,1001.25
2019-06-07T08:58:10.626Z,1001.27
2019-06-07T08:59:11.646Z,1001.23
2019-06-07T09:00:42.201Z,1001.17
2019-06-07T09:01:10.486Z,1001.20
2019-06-07T09:02:23.392Z,1001.13
2019-06-07T09:03:10.464Z,1001.18
2019-06-07T09:04:11.295Z,1001.14
2019-06-07T09:05:12.241Z,1001.10
2019-06-07T09:06:53.947Z,1001.16
2019-06-07T09:07:19.193Z,1001.11
2019-06-07T09:08:28.731Z,1001.04
2019-06-07T09:09:10.366Z,1001.01
2019-06-07T09:10:14.371Z,1001.08
2019-06-07T09:11:11.515Z,1001.07
2019-06-07T09:12:11.531Z,1001.07
2019-06-07T09:13:11.652Z,1001.05
2019-06-07T09:14:10.104Z,1001.07
2019-06-07T09:15:20.175Z,1001.09
2019-06-07T09:16:10.055Z,1001.04
2019-06-07T09:17:12.352Z,1001.04
2019-06-07T09:18:37.935Z,1001.06
2019-06-07T09:19:11.039Z,1001.02
2019-06-07T09:20:32.649Z,1000.96
2019-06-07T09:21:10.129Z,1001.01
2019-06-07T09:22:11.447Z,1001.00
2019-06-07T09:23:16.638Z,1000.93
2019-06-07T09:24:11.711Z,1000.94
2019-06-07T09:25:20.171Z,1000.89
2019-06-07T09:26:17.644Z,1000.93
2019-06-07T09:27:10.479Z,1000.87
2019-06-07T09:28:18.739Z,1000.87
2019-06-07T09:29:11.872Z,1000.90
2019-06-07T09:30:16.291Z,1000.83
2019-06-07T09:31:12.327Z,1000.87
2019-06-07T09:32:12.109Z,1000.89
2019-06-07T09:33:09.579Z,1000.81
2019-06-07T09:34:13.916Z,1000.88
2019-06-07T09:35:16.444Z,1000.80
2019-06-07T09:36:12.930Z,1000.80
2019-06-07T09:37:55.313Z,1000.78
2019-06-07T09:38:25.402Z,1000.76
2019-06-07T09:40:24.313Z,1000.74
2019-06-07T09:41:13.816Z,1000.80
2019-06-07T09:42:13.795Z,1000.80
2019-06-07T09:44:24.142Z,1000.80
2019-06-07T09:45:14.202Z,1000.87
2019-06-07T09:46:16.049Z,1000.87
2019-06-07T09:47:31.154Z,1000.79
2019-06-07T09:48:23.917Z,1000.85
2019-06-07T09:49:28.234Z,1000.81
2019-06-07T09:50:13.552Z,1000.79
2019-06-07T09:51:19.784Z,1000.78
2019-06-07T09:52:13.504Z,1000.75
2019-06-07T09:53:22.404Z,1000.74
2019-06-07T09:55:02.391Z,1000.77
2019-06-07T09:55:23.532Z,1000.80
2019-06-07T09:56:13.392Z,1000.83
2019-06-07T09:57:17.549Z,1000.72
2019-06-07T09:59:13.311Z,1000.79
2019-06-07T10:00:38.621Z,1000.75
2019-06-07T10:01:14.101Z,1000.78
2019-06-07T10:02:13.829Z,1000.82
2019-06-07T10:03:21.220Z,1000.82
2019-06-07T10:04:28.485Z,1000.79
2019-06-07T10:05:14.402Z,1000.82
2019-06-07T10:06:13.889Z,1000.81
2019-06-07T10:07:30.729Z,1000.76
2019-06-07T10:09:01.012Z,1000.81
2019-06-07T10:11:12.993Z,1000.80
2019-06-07T10:12:12.968Z,1000.76
2019-06-07T10:13:12.956Z,1000.74
2019-06-07T10:14:12.938Z,1000.70
2019-06-07T10:15:12.894Z,1000.73
2019-06-07T10:16:12.868Z,1000.70
2019-06-07T10:17:12.836Z,1000.65
2019-06-07T10:18:12.807Z,1000.63
2019-06-07T10:19:12.792Z,1000.61
2019-06-07T10:20:12.778Z,1000.63
2019-06-07T10:21:15.162Z,1000.68
2019-06-07T10:22:12.704Z,1000.58
2019-06-07T10:23:12.676Z,1000.64
2019-06-07T10:24:12.657Z,1000.62
2019-06-07T10:25:12.625Z,1000.58
2019-06-07T10:26:12.614Z,1000.47
2019-06-07T10:27:12.593Z,1000.53
2019-06-07T10:28:12.560Z,1000.52
2019-06-07T10:29:12.534Z,1000.50
2019-06-07T10:30:12.503Z,1000.47
2019-06-07T10:31:12.509Z,1000.41
2019-06-07T10:32:12.462Z,1000.43
2019-06-07T10:33:12.440Z,1000.32
2019-06-07T10:34:12.422Z,1000.34
2019-06-07T10:35:15.983Z,1000.33
2019-06-07T10:36:12.367Z,1000.31
2019-06-07T10:37:15.638Z,1000.29
2019-06-07T10:38:12.313Z,1000.24
2019-06-07T10:39:12.296Z,1000.25
2019-06-07T10:40:12.297Z,1000.21
2019-06-07T10:41:12.245Z,1000.18
2019-06-07T10:42:12.222Z,1000.23
2019-06-07T10:43:14.398Z,1000.19
2019-06-07T10:44:12.180Z,1000.15
2019-06-07T10:45:12.372Z,1000.16
2019-06-07T10:46:12.220Z,1000.22
2019-06-07T10:47:12.358Z,1000.18
2019-06-07T10:48:12.088Z,1000.08
2019-06-07T10:49:12.271Z,1000.08
2019-06-07T10:50:12.284Z,1000.07
2019-06-07T10:51:14.576Z,1000.02
2019-06-07T10:52:13.264Z,1000.04
2019-06-07T10:53:12.600Z,999.92
2019-06-07T10:54:24.693Z,999.89
2019-06-07T10:55:12.690Z,999.91
2019-06-07T10:56:13.320Z,999.92
2019-06-07T10:57:14.552Z,999.95
2019-06-07T10:58:13.181Z,999.92
2019-06-07T10:59:12.303Z,999.94
2019-06-07T11:00:11.854Z,999.89
2019-06-07T11:01:12.901Z,999.87
2019-06-07T11:02:11.966Z,999.87
2019-06-07T11:03:11.889Z,999.75
2019-06-07T11:04:11.828Z,999.66
2019-06-07T11:05:20.913Z,999.69
2019-06-07T11:07:06.447Z,999.77
2019-06-07T11:08:05.979Z,999.71
2019-06-07T11:09:05.912Z,999.66
2019-06-07T11:10:09.379Z,999.65
2019-06-07T11:11:05.998Z,999.61
2019-06-07T11:12:06.293Z,999.54
2019-06-07T11:13:06.036Z,999.46
2019-06-07T11:14:06.323Z,999.52
2019-06-07T11:15:04.871Z,999.53
2019-06-07T11:16:04.838Z,999.55
2019-06-07T11:17:05.160Z,999.41
2019-06-07T11:18:06.117Z,999.42
2019-06-07T11:19:06.034Z,999.40
2019-06-07T11:20:05.978Z,999.38
2019-06-07T11:21:06.001Z,999.38
2019-06-07T11:22:05.980Z,999.31
2019-06-07T11:23:06.615Z,999.29
2019-06-07T11:24:06.038Z,999.29
2019-06-07T11:25:06.767Z,999.23
2019-06-07T11:26:04.887Z,999.26
2019-06-07T11:27:04.587Z,999.18
2019-06-07T11:28:04.574Z,999.22
2019-06-07T11:29:04.552Z,999.22
2019-06-07T11:30:04.552Z,999.16
2019-06-07T11:31:04.505Z,999.06
2019-06-07T11:32:04.482Z,999.06
2019-06-07T11:33:04.471Z,999.09
2019-06-07T11:34:04.462Z,999.05
2019-06-07T11:35:04.438Z,999.01
2019-06-07T11:36:04.393Z,999.05
2019-06-07T11:37:04.406Z,999.02
2019-06-07T11:38:04.368Z,998.99
2019-06-07T11:39:04.343Z,998.92
2019-06-07T11:40:04.318Z,998.91
2019-06-07T11:41:04.308Z,998.89
2019-06-07T11:42:05.609Z,998.92
2019-06-07T11:43:04.233Z,998.97
2019-06-07T11:44:04.215Z,998.88
2019-06-07T11:45:04.193Z,998.80
2019-06-07T11:46:04.181Z,998.83
2019-06-07T11:47:04.153Z,998.94
2019-06-07T11:48:04.139Z,998.88
2019-06-07T11:49:04.126Z,998.84
2019-06-07T11:50:04.094Z,998.76
2019-06-07T11:51:04.067Z,998.71
2019-06-07T11:52:04.061Z,998.86
2019-06-07T11:53:04.055Z,998.80
2019-06-07T11:54:04.021Z,998.88
2019-06-07T11:55:03.982Z,998.71
2019-06-07T11:56:03.955Z,998.77
2019-06-07T11:57:03.938Z,998.78
2019-06-07T11:58:03.906Z,998.80
2019-06-07T11:59:03.901Z,998.82
2019-06-07T12:00:03.879Z,998.81
2019-06-07T12:01:03.845Z,998.82
2019-06-07T12:02:03.819Z,998.78
2019-06-07T12:03:03.798Z,998.83
2019-06-07T12:04:03.789Z,998.75
2019-06-07T12:05:03.764Z,998.77
2019-06-07T12:06:03.731Z,998.72
2019-06-07T12:07:03.738Z,998.82
2019-06-07T12:08:03.678Z,998.86
2019-06-07T12:09:03.664Z,998.75
2019-06-07T12:10:03.648Z,998.73
2019-06-07T12:11:03.641Z,998.77
2019-06-07T12:12:03.614Z,998.75
2019-06-07T12:13:03.589Z,998.78
2019-06-07T12:14:03.554Z,998.77
2019-06-07T12:15:03.539Z,998.74
2019-06-07T12:16:03.524Z,998.74
2019-06-07T12:17:03.510Z,998.78
2019-06-07T12:18:03.495Z,998.82
2019-06-07T12:19:03.451Z,998.74
2019-06-07T12:20:03.481Z,998.78
2019-06-07T12:21:03.419Z,998.80
2019-06-07T12:22:03.388Z,998.82
2019-06-07T12:23:03.371Z,998.79
2019-06-07T12:24:03.421Z,998.69
2019-06-07T12:25:05.822Z,998.74
2019-06-07T12:26:03.318Z,998.68
2019-06-07T12:27:03.293Z,998.71
2019-06-07T12:28:03.300Z,998.76
2019-06-07T12:29:03.256Z,998.72
2019-06-07T12:30:09.820Z,998.63
2019-06-07T12:31:03.239Z,998.70
2019-06-07T12:32:03.181Z,998.67
2019-06-07T12:33:03.165Z,998.69
2019-06-07T12:34:03.157Z,998.69
2019-06-07T12:35:03.135Z,998.62
2019-06-07T12:36:03.109Z,998.62
2019-06-07T12:37:03.086Z,998.59
2019-06-07T12:38:03.047Z,998.55
2019-06-07T12:39:03.046Z,998.55
2019-06-07T12:40:03.031Z,998.51
2019-06-07T12:41:03.034Z,998.56
2019-06-07T12:42:02.983Z,998.61
2019-06-07T12:43:02.965Z,998.55
2019-06-07T12:44:03.003Z,998.60
2019-06-07T12:45:02.985Z,998.59
2019-06-07T12:46:02.887Z,998.57
2019-06-07T12:47:02.935Z,998.57
2019-06-07T12:48:03.001Z,998.59
2019-06-07T12:49:02.830Z,998.60
2019-06-07T12:50:02.795Z,998.63
2019-06-07T12:51:02.792Z,998.71
2019-06-07T12:52:02.763Z,998.78
2019-06-07T12:53:02.742Z,998.72
2019-06-07T12:54:02.736Z,998.78
2019-06-07T12:55:02.695Z,998.80
2019-06-07T12:56:02.676Z,998.79
2019-06-07T12:57:02.672Z,998.75
2019-06-07T12:58:02.631Z,998.66
2019-06-07T12:59:02.610Z,998.75
2019-06-07T13:00:02.972Z,998.71
2019-06-07T13:01:02.563Z,998.72
2019-06-07T13:02:02.755Z,998.73
2019-06-07T13:03:02.516Z,998.67
2019-06-07T13:04:02.519Z,998.71
2019-06-07T13:05:04.632Z,998.71
2019-06-07T13:06:02.462Z,998.65
2019-06-07T13:07:02.431Z,998.70
2019-06-07T13:08:02.396Z,998.67
2019-06-07T13:09:11.033Z,998.59
2019-06-07T13:11:17.324Z,998.63
2019-06-07T13:12:06.768Z,998.69
2019-06-07T13:13:06.739Z,998.70
2019-06-07T13:14:06.719Z,998.65
2019-06-07T13:15:06.701Z,998.62
2019-06-07T13:16:06.714Z,998.64
2019-06-07T13:17:06.645Z,998.61
2019-06-07T13:18:06.633Z,998.62
2019-06-07T13:19:06.596Z,998.66
2019-06-07T13:20:06.587Z,998.67
2019-06-07T13:21:06.552Z,998.58
2019-06-07T13:22:06.533Z,998.62
2019-06-07T13:23:06.512Z,998.60
2019-06-07T13:24:06.506Z,998.59
2019-06-07T13:25:06.467Z,998.61
2019-06-07T13:26:06.438Z,998.62
2019-06-07T13:27:06.413Z,998.61
2019-06-07T13:28:06.390Z,998.61
2019-06-07T13:29:06.360Z,998.52
2019-06-07T13:30:10.287Z,998.54
2019-06-07T13:31:06.368Z,998.45
2019-06-07T13:32:06.300Z,998.38
2019-06-07T13:33:06.283Z,998.43
2019-06-07T13:34:06.274Z,998.46
2019-06-07T13:35:06.249Z,998.58
2019-06-07T13:36:06.286Z,998.45
2019-06-07T13:37:06.222Z,998.44
2019-06-07T13:38:06.184Z,998.44
2019-06-07T13:39:06.169Z,998.54
2019-06-07T13:40:06.135Z,998.54
2019-06-07T13:41:06.085Z,998.57
2019-06-07T13:42:06.097Z,998.52
2019-06-07T13:43:06.050Z,998.54
2019-06-07T13:44:06.045Z,998.54
2019-06-07T13:45:06.009Z,998.56
2019-06-07T13:46:05.980Z,998.48
2019-06-07T13:47:05.970Z,998.41
2019-06-07T13:48:05.944Z,998.32
2019-06-07T13:49:05.935Z,998.29
2019-06-07T13:50:05.900Z,998.31
2019-06-07T13:51:05.865Z,998.27
2019-06-07T13:52:05.858Z,998.27
2019-06-07T13:53:05.810Z,998.23
2019-06-07T13:54:05.801Z,998.25
2019-06-07T13:55:05.789Z,998.20
2019-06-07T13:56:05.756Z,998.25
2019-06-07T13:57:05.760Z,998.18
2019-06-07T13:58:05.711Z,998.34
2019-06-07T13:59:05.677Z,998.30
2019-06-07T14:00:10.449Z,998.33
2019-06-07T14:01:05.642Z,998.29
2019-06-07T14:02:05.625Z,998.34
2019-06-07T14:03:05.608Z,998.27
2019-06-07T14:04:05.560Z,998.23
2019-06-07T14:05:05.573Z,998.33
2019-06-07T14:06:05.515Z,998.35
2019-06-07T14:07:14.154Z,998.33
2019-06-07T14:09:09.926Z,998.42
2019-06-07T14:10:11.565Z,998.39
2019-06-07T14:11:09.856Z,998.37
2019-06-07T14:12:09.837Z,998.38
2019-06-07T14:13:09.806Z,998.36
2019-06-07T14:14:09.797Z,998.37
2019-06-07T14:15:09.772Z,998.26
2019-06-07T14:16:09.761Z,998.24
2019-06-07T14:17:09.738Z,998.26
2019-06-07T14:18:09.716Z,998.16
2019-06-07T14:19:09.691Z,998.15
2019-06-07T14:20:10.566Z,998.11
2019-06-07T14:21:09.632Z,998.18
2019-06-07T14:22:09.628Z,998.00
2019-06-07T14:23:09.602Z,997.97
2019-06-07T14:24:09.577Z,997.99
2019-06-07T14:25:09.562Z,997.95
2019-06-07T14:26:09.532Z,997.98
2019-06-07T14:27:09.513Z,997.94
2019-06-07T14:28:11.801Z,997.96
2019-06-07T14:29:09.472Z,997.95
2019-06-07T14:30:09.451Z,997.99
2019-06-07T14:31:09.424Z,998.00
2019-06-07T14:32:09.414Z,998.05
2019-06-07T14:33:09.374Z,998.11
2019-06-07T14:34:09.362Z,998.06
2019-06-07T14:35:09.335Z,998.04
2019-06-07T14:36:09.307Z,998.08
2019-06-07T14:37:09.284Z,998.15
2019-06-07T14:38:09.268Z,998.15
2019-06-07T14:39:09.247Z,998.13
2019-06-07T14:40:09.218Z,998.17
2019-06-07T14:41:09.201Z,998.27
2019-06-07T14:42:10.440Z,998.26
2019-06-07T14:43:09.168Z,998.37
2019-06-07T14:44:09.129Z,998.38
2019-06-07T14:45:09.107Z,998.40
2019-06-07T14:46:09.080Z,998.41
2019-06-07T14:47:09.054Z,998.40
2019-06-07T14:48:09.024Z,998.44
2019-06-07T14:49:09.004Z,998.41
2019-06-07T14:50:08.989Z,998.40
2019-06-07T14:51:08.968Z,998.42
2019-06-07T14:52:08.923Z,998.42
2019-06-07T14:53:08.919Z,998.43
2019-06-07T14:54:08.888Z,998.42
2019-06-07T14:55:08.868Z,998.40
2019-06-07T14:56:08.839Z,998.38
2019-06-07T14:57:08.838Z,998.39
2019-06-07T14:58:08.789Z,998.45
2019-06-07T14:59:08.760Z,998.43
2019-06-07T15:00:11.468Z,998.51
2019-06-07T15:01:08.711Z,998.57
2019-06-07T15:02:08.692Z,998.62
2019-06-07T15:03:08.659Z,998.67
2019-06-07T15:04:08.639Z,998.70
2019-06-07T15:05:08.627Z,998.70
2019-06-07T15:06:08.594Z,998.87
2019-06-07T15:07:08.569Z,998.94
2019-06-07T15:08:08.581Z,998.95
2019-06-07T15:09:08.516Z,999.04
2019-06-07T15:10:08.481Z,999.12
2019-06-07T15:11:08.459Z,999.21
2019-06-07T15:12:23.915Z,999.24
2019-06-07T15:13:08.420Z,999.35
2019-06-07T15:14:08.384Z,999.44
2019-06-07T15:15:08.360Z,999.55
2019-06-07T15:16:08.327Z,999.67
2019-06-07T15:17:08.309Z,999.76
2019-06-07T15:18:08.291Z,999.75
2019-06-07T15:19:08.271Z,999.72
2019-06-07T15:20:08.238Z,999.72
2019-06-07T15:21:08.201Z,999.81
2019-06-07T15:22:08.189Z,999.78
2019-06-07T15:23:08.157Z,999.74
2019-06-07T15:24:08.124Z,999.72
2019-06-07T15:25:08.104Z,999.72
2019-06-07T15:26:08.071Z,999.76
2019-06-07T15:27:08.045Z,999.79
2019-06-07T15:28:08.016Z,999.75
2019-06-07T15:29:07.992Z,999.70
2019-06-07T15:30:10.228Z,999.66
2019-06-07T15:31:07.953Z,999.69
2019-06-07T15:32:07.906Z,999.73
2019-06-07T15:33:07.899Z,999.71
2019-06-07T15:34:07.856Z,999.77
2019-06-07T15:35:07.828Z,999.71
2019-06-07T15:36:07.831Z,999.70
2019-06-07T15:37:07.766Z,999.65
2019-06-07T15:38:07.747Z,999.72
2019-06-07T15:39:07.719Z,999.83
2019-06-07T15:40:07.683Z,999.94
2019-06-07T15:41:07.669Z,1000.06
2019-06-07T15:42:07.641Z,1000.30
2019-06-07T15:43:07.606Z,1000.54
2019-06-07T15:44:07.936Z,1000.71
2019-06-07T15:45:07.557Z,1000.72
2019-06-07T15:46:07.537Z,1000.82
2019-06-07T15:47:07.496Z,1000.83
2019-06-07T15:48:07.467Z,1000.85
2019-06-07T15:49:07.463Z,1000.97
2019-06-07T15:50:07.411Z,1000.98
2019-06-07T15:51:07.383Z,1001.00
2019-06-07T15:52:07.360Z,1001.10
2019-06-07T15:53:07.342Z,1001.10
2019-06-07T15:54:07.443Z,1001.17
2019-06-07T15:55:07.270Z,1001.16
2019-06-07T15:56:07.257Z,1001.27
2019-06-07T15:57:07.227Z,1001.26
2019-06-07T15:58:07.196Z,1001.28
2019-06-07T15:59:07.163Z,1001.31
2019-06-07T16:00:07.138Z,1001.37
2019-06-07T16:01:07.104Z,1001.30
2019-06-07T16:02:07.086Z,1001.41
2019-06-07T16:03:07.056Z,1001.43
2019-06-07T16:04:07.031Z,1001.40
2019-06-07T16:05:07.076Z,1001.44
2019-06-07T16:06:07.041Z,1001.45
2019-06-07T16:07:06.949Z,1001.51
2019-06-07T16:08:06.919Z,1001.57
2019-06-07T16:09:06.896Z,1001.52
2019-06-07T16:10:06.867Z,1001.46
2019-06-07T16:11:06.837Z,1001.45
2019-06-07T16:12:06.803Z,1001.37
2019-06-07T16:13:06.778Z,1001.30
2019-06-07T16:14:06.802Z,1001.34
2019-06-07T16:15:06.714Z,1001.39
2019-06-07T16:16:06.745Z,1001.35
2019-06-07T16:17:06.686Z,1001.33
2019-06-07T16:18:06.638Z,1001.37
2019-06-07T16:19:06.612Z,1001.40
2019-06-07T16:20:06.593Z,1001.49
2019-06-07T16:21:06.564Z,1001.52
2019-06-07T16:22:06.534Z,1001.53
2019-06-07T16:23:06.514Z,1001.63
2019-06-07T16:24:06.471Z,1001.66
2019-06-07T16:25:06.450Z,1001.74
2019-06-07T16:26:06.411Z,1001.77
2019-06-07T16:27:06.395Z,1001.88
2019-06-07T16:28:06.443Z,1002.07
2019-06-07T16:29:06.321Z,1002.06
2019-06-07T16:30:09.350Z,1002.07
2019-06-07T16:31:06.271Z,1002.15
2019-06-07T16:32:06.234Z,1002.13
2019-06-07T16:33:06.212Z,1002.13
2019-06-07T16:34:06.185Z,1002.20
2019-06-07T16:35:06.160Z,1002.13
2019-06-07T16:36:06.134Z,1002.19
2019-06-07T16:37:06.086Z,1002.13
2019-06-07T16:38:06.076Z,1002.13
2019-06-07T16:39:06.059Z,1002.09
2019-06-07T16:40:06.020Z,1002.01
2019-06-07T16:41:05.985Z,1002.01
2019-06-07T16:42:05.958Z,1001.88
2019-06-07T16:43:16.701Z,1001.83
2019-06-07T16:44:05.898Z,1001.80
2019-06-07T16:45:05.882Z,1001.77
2019-06-07T16:46:05.856Z,1001.87
2019-06-07T16:47:05.802Z,1001.87
2019-06-07T16:48:05.791Z,1001.86
2019-06-07T16:49:05.761Z,1001.90
2019-06-07T16:50:05.724Z,1001.99
2019-06-07T16:51:05.695Z,1001.99
2019-06-07T16:52:05.663Z,1002.00
2019-06-07T16:53:05.632Z,1001.96
2019-06-07T16:54:05.605Z,1002.05
2019-06-07T16:55:05.578Z,1002.05
2019-06-07T16:56:05.551Z,1002.06
2019-06-07T16:57:05.526Z,1002.08
2019-06-07T16:58:05.485Z,1002.12
2019-06-07T16:59:05.456Z,1002.09
2019-06-07T17:00:05.441Z,1002.18
2019-06-07T17:01:05.400Z,1002.16
2019-06-07T17:02:05.371Z,1002.28
2019-06-07T17:03:05.341Z,1002.29
2019-06-07T17:04:05.313Z,1002.31
2019-06-07T17:05:05.281Z,1002.34
2019-06-07T17:06:05.261Z,1002.41
2019-06-07T17:07:05.222Z,1002.45
2019-06-07T17:08:05.213Z,1002.52
2019-06-07T17:09:05.163Z,1002.57
2019-06-07T17:10:05.143Z,1002.58
2019-06-07T17:11:05.926Z,1002.58
2019-06-07T17:12:05.077Z,1002.55
2019-06-07T17:13:05.047Z,1002.52
2019-06-07T17:14:05.018Z,1002.47
2019-06-07T17:15:04.983Z,1002.41
2019-06-07T17:16:04.966Z,1002.34
2019-06-07T17:17:04.940Z,1002.24
2019-06-07T17:18:04.922Z,1002.20
2019-06-07T17:19:04.889Z,1002.17
2019-06-07T17:20:04.839Z,1002.23
2019-06-07T17:21:04.811Z,1002.20
2019-06-07T17:22:05.422Z,1002.15
2019-06-07T17:23:04.768Z,1002.12
2019-06-07T17:24:04.713Z,1002.04
2019-06-07T17:25:04.707Z,1001.97
2019-06-07T17:26:04.671Z,1001.94
2019-06-07T17:27:04.632Z,1001.89
2019-06-07T17:28:04.602Z,1001.76
2019-06-07T17:29:04.567Z,1001.86
2019-06-07T17:30:04.548Z,1001.80
2019-06-07T17:31:04.510Z,1001.85
2019-06-07T17:32:04.547Z,1001.74
2019-06-07T17:33:04.457Z,1001.58
2019-06-07T17:34:04.429Z,1001.63
2019-06-07T17:35:04.394Z,1001.64
2019-06-07T17:36:04.359Z,1001.67
2019-06-07T17:37:04.335Z,1001.57
2019-06-07T17:38:04.304Z,1001.43
2019-06-07T17:39:04.268Z,1001.46
2019-06-07T17:40:04.243Z,1001.41
2019-06-07T17:41:04.224Z,1001.48
2019-06-07T17:42:04.193Z,1001.42
2019-06-07T17:43:04.162Z,1001.49
2019-06-07T17:44:04.134Z,1001.44
2019-06-07T17:45:04.089Z,1001.61
2019-06-07T17:46:04.080Z,1001.52
2019-06-07T17:47:04.036Z,1001.58
2019-06-07T17:48:04.047Z,1001.61
2019-06-07T17:49:03.987Z,1001.60
2019-06-07T17:50:04.042Z,1001.49
2019-06-07T17:51:03.915Z,1001.42
2019-06-07T17:52:03.886Z,1001.51
2019-06-07T17:53:03.871Z,1001.55
2019-06-07T17:54:03.830Z,1001.44
2019-06-07T17:55:03.790Z,1001.12
2019-06-07T17:56:03.767Z,1000.96
2019-06-07T17:57:03.752Z,1000.96
2019-06-07T17:58:03.724Z,1001.00
2019-06-07T17:59:03.681Z,1000.71
2019-06-07T18:00:27.599Z,1000.64
2019-06-07T18:01:03.629Z,1000.48
2019-06-07T18:02:14.329Z,1000.45
2019-06-07T18:03:03.556Z,1000.55
2019-06-07T18:04:03.517Z,1000.47
2019-06-07T18:05:03.501Z,1000.61
2019-06-07T18:06:03.467Z,1000.63
2019-06-07T18:07:03.435Z,1000.52
2019-06-07T18:08:03.406Z,1000.38
2019-06-07T18:09:03.378Z,1000.30
2019-06-07T18:10:03.929Z,1000.30
2019-06-07T18:11:03.317Z,1000.38
2019-06-07T18:12:03.282Z,1000.31
2019-06-07T18:13:03.264Z,1000.29
2019-06-07T18:14:10.555Z,1000.30
2019-06-07T18:15:03.203Z,1000.31
2019-06-07T18:16:03.177Z,1000.39
2019-06-07T18:17:03.137Z,1000.38
2019-06-07T18:18:03.103Z,1000.32
2019-06-07T18:19:03.074Z,1000.36
2019-06-07T18:20:03.042Z,1000.38
2019-06-07T18:21:03.018Z,1000.54
2019-06-07T18:22:02.994Z,1000.67
2019-06-07T18:23:02.961Z,1000.86
2019-06-07T18:24:02.931Z,1001.00
2019-06-07T18:25:02.911Z,1001.04
2019-06-07T18:26:02.870Z,1001.00
2019-06-07T18:27:02.862Z,1001.04
2019-06-07T18:28:02.805Z,1001.01
2019-06-07T18:29:02.771Z,1000.93
2019-06-07T18:30:11.295Z,1000.81
2019-06-07T18:31:02.718Z,1000.66
2019-06-07T18:32:02.680Z,1000.69
2019-06-07T18:33:02.648Z,1000.67
2019-06-07T18:34:02.634Z,1000.77
2019-06-07T18:35:02.588Z,1000.88
2019-06-07T18:36:02.563Z,1000.77
2019-06-07T18:37:02.526Z,1000.76
2019-06-07T18:38:02.500Z,1000.83
2019-06-07T18:39:02.469Z,1000.73
2019-06-07T18:40:02.448Z,1000.84
2019-06-07T18:41:02.424Z,1000.79
2019-06-07T18:42:02.384Z,1000.71
2019-06-07T18:43:02.423Z,1000.64
2019-06-07T18:44:02.331Z,1000.61
2019-06-07T18:45:02.328Z,1000.58
2019-06-07T18:46:02.259Z,1000.54
2019-06-07T18:47:02.265Z,1000.45
2019-06-07T18:48:02.194Z,1000.37
2019-06-07T18:49:02.175Z,1000.39
2019-06-07T18:50:02.147Z,1000.14
2019-06-07T18:51:02.105Z,999.95
2019-06-07T18:52:02.087Z,999.71
2019-06-07T18:53:02.049Z,999.65
2019-06-07T18:54:02.035Z,999.71
2019-06-07T18:55:01.989Z,999.87
2019-06-07T18:56:02.010Z,1000.12
2019-06-07T18:57:01.926Z,1000.36
2019-06-07T18:58:01.898Z,1000.45
2019-06-07T18:59:01.878Z,1000.45
2019-06-07T19:00:01.869Z,1000.62